createdAt,value
2023-03-31T00:03:11.858Z,63.81
2023-03-31T00:08:15.030Z,65.13
2023-03-31T00:13:17.724Z,65.26
2023-03-31T00:18:20.052Z,66.75
2023-03-31T00:23:28.462Z,68.02
2023-03-31T00:28:30.738Z,66.11
2023-03-31T00:33:33.140Z,69.08
2023-03-31T00:38:35.960Z,69.20
2023-03-31T00:43:39.395Z,69.54
2023-03-31T00:48:51.879Z,69.81
2023-03-31T00:54:00.311Z,70.25
2023-03-31T00:59:08.329Z,70.05
2023-03-31T01:04:13.113Z,70.77
2023-03-31T01:09:17.631Z,72.47
2023-03-31T01:14:20.161Z,74.27
2023-03-31T01:19:46.921Z,74.55
2023-03-31T01:25:16.677Z,77.61
2023-03-31T01:30:27.901Z,77.23
2023-03-31T01:35:40.536Z,77.77
2023-03-31T01:41:01.274Z,78.28
2023-03-31T01:46:16.151Z,77.93
2023-03-31T01:51:33.609Z,77.57
2023-03-31T01:56:41.701Z,77.13
2023-03-31T02:01:52.837Z,76.10
2023-03-31T02:07:02.632Z,76.79
2023-03-31T02:12:09.928Z,78.84
2023-03-31T02:17:18.609Z,79.33
2023-03-31T02:22:24.417Z,77.89
2023-03-31T02:27:32.100Z,77.96
2023-03-31T02:32:40.103Z,77.53
2023-03-31T02:37:43.622Z,76.35
2023-03-31T02:42:49.170Z,76.34
2023-03-31T02:47:51.475Z,78.79
2023-03-31T02:53:07.557Z,78.23
2023-03-31T02:58:45.361Z,79.25
2023-03-31T03:04:09.785Z,79.92
2023-03-31T03:09:32.192Z,77.45
2023-03-31T03:14:47.670Z,76.90
2023-03-31T03:20:01.303Z,74.42
2023-03-31T03:25:07.903Z,76.45
2023-03-31T03:30:13.282Z,75.89
2023-03-31T03:35:15.808Z,75.50
2023-03-31T03:40:18.695Z,75.13
2023-03-31T03:45:21.148Z,77.29
2023-03-31T03:50:23.978Z,76.11
2023-03-31T03:55:26.230Z,77.23
2023-03-31T04:00:28.414Z,76.93
2023-03-31T04:05:31.144Z,77.07
2023-03-31T04:10:33.522Z,78.71
2023-03-31T04:15:35.717Z,78.36
2023-03-31T04:20:38.180Z,77.37
2023-03-31T04:25:46.430Z,77.32
2023-03-31T04:30:49.395Z,77.46
2023-03-31T04:35:53.065Z,76.94
2023-03-31T04:40:56.626Z,75.26
2023-03-31T04:45:58.849Z,75.72
2023-03-31T04:51:01.575Z,73.70
2023-03-31T04:56:04.747Z,73.31
2023-03-31T05:01:07.345Z,69.81
2023-03-31T05:06:09.862Z,68.21
2023-03-31T05:11:12.205Z,66.33
2023-03-31T05:16:15.166Z,67.37
2023-03-31T05:21:20.150Z,65.21
2023-03-31T05:26:26.525Z,65.11
2023-03-31T05:31:29.158Z,63.80
2023-03-31T05:36:32.486Z,64.44
2023-03-31T05:41:34.704Z,67.06
2023-03-31T05:46:37.193Z,63.70
2023-03-31T05:51:39.662Z,62.88
2023-03-31T05:56:41.913Z,61.14
2023-03-31T06:01:44.389Z,62.76
2023-03-31T06:06:50.584Z,66.21
2023-03-31T06:11:53.113Z,65.40
2023-03-31T06:16:57.684Z,66.98
2023-03-31T06:22:00.156Z,66.68
2023-03-31T06:27:04.141Z,65.97
2023-03-31T06:32:06.842Z,68.76
2023-03-31T06:37:11.601Z,64.83
2023-03-31T06:42:13.781Z,64.70
2023-03-31T06:47:16.438Z,67.41
2023-03-31T06:52:21.058Z,70.43
2023-03-31T06:57:23.313Z,72.17
2023-03-31T07:02:25.806Z,68.73
2023-03-31T07:07:31.239Z,68.16
2023-03-31T07:12:34.479Z,72.72
2023-03-31T07:17:37.835Z,74.08
2023-03-31T07:22:41.715Z,71.81
2023-03-31T07:27:44.760Z,70.56
2023-03-31T07:32:49.144Z,70.68
2023-03-31T07:37:52.358Z,71.17
2023-03-31T07:42:55.513Z,71.17
2023-03-31T07:47:57.990Z,68.93
2023-03-31T07:53:00.472Z,66.10
2023-03-31T07:58:03.323Z,62.71
2023-03-31T08:03:06.475Z,60.22
2023-03-31T08:08:09.285Z,57.47
2023-03-31T08:13:11.619Z,57.26
2023-03-31T08:18:14.634Z,56.05
2023-03-31T08:23:17.375Z,55.60
2023-03-31T08:28:19.898Z,54.96
2023-03-31T08:33:22.225Z,52.72
2023-03-31T08:38:24.500Z,52.44
2023-03-31T08:43:35.187Z,52.05
2023-03-31T08:48:49.257Z,51.94
2023-03-31T08:54:00.254Z,51.06
2023-03-31T08:59:03.223Z,51.75
2023-03-31T09:04:24.614Z,51.19
2023-03-31T09:09:36.389Z,49.83
2023-03-31T09:14:44.761Z,49.73
2023-03-31T09:19:59.661Z,49.38
2023-03-31T09:25:11.122Z,45.98
2023-03-31T09:30:23.057Z,44.30
2023-03-31T09:35:27.018Z,40.97
2023-03-31T09:40:30.310Z,40.40
2023-03-31T09:45:34.410Z,36.94
2023-03-31T09:50:53.305Z,36.85
2023-03-31T09:56:02.451Z,35.01
2023-03-31T10:01:07.386Z,33.79
2023-03-31T10:06:12.654Z,33.18
2023-03-31T10:11:15.734Z,32.69
2023-03-31T10:16:31.498Z,34.14
2023-03-31T10:21:37.326Z,34.09
2023-03-31T10:26:41.634Z,36.63
2023-03-31T10:31:44.599Z,37.94
2023-03-31T10:36:49.529Z,36.96
2023-03-31T10:41:53.712Z,35.49
2023-03-31T10:46:56.167Z,38.47
2023-03-31T10:52:01.650Z,38.78
2023-03-31T10:57:06.517Z,39.36
2023-03-31T11:02:21.714Z,39.68
2023-03-31T11:07:30.192Z,40.54
2023-03-31T11:12:45.210Z,40.37
2023-03-31T11:17:56.593Z,41.25
2023-03-31T11:23:32.872Z,42.63
2023-03-31T11:28:54.059Z,44.13
2023-03-31T11:34:30.418Z,43.41
2023-03-31T11:40:10.284Z,41.75
2023-03-31T11:45:28.186Z,40.79
2023-03-31T11:50:40.431Z,40.39
2023-03-31T11:55:49.748Z,39.88
2023-03-31T12:00:57.697Z,39.62
2023-03-31T12:06:17.762Z,41.32
2023-03-31T12:11:43.635Z,41.89
2023-03-31T12:16:49.693Z,42.44
2023-03-31T12:22:01.206Z,42.07
2023-03-31T12:27:15.692Z,41.18
2023-03-31T12:32:22.611Z,41.36
2023-03-31T12:38:12.499Z,42.99
2023-03-31T12:43:25.600Z,41.64
2023-03-31T12:49:07.050Z,41.04
2023-03-31T12:54:38.542Z,41.62
2023-03-31T12:59:46.138Z,41.05
2023-03-31T13:04:50.038Z,40.81
2023-03-31T13:10:14.834Z,41.56
2023-03-31T13:15:18.306Z,41.78
2023-03-31T13:20:44.902Z,42.38
2023-03-31T13:25:57.735Z,41.48
2023-03-31T13:31:22.359Z,41.29
2023-03-31T13:36:34.094Z,41.30
2023-03-31T13:42:04.443Z,40.74
2023-03-31T13:47:35.172Z,41.18
2023-03-31T13:52:59.571Z,41.05
2023-03-31T13:58:34.884Z,40.10
2023-03-31T14:04:12.177Z,39.67
2023-03-31T14:09:23.613Z,39.24
2023-03-31T14:14:27.637Z,39.46
2023-03-31T14:19:55.828Z,40.83
2023-03-31T14:25:26.765Z,41.21
2023-03-31T14:30:39.019Z,41.24
2023-03-31T14:36:09.095Z,41.94
2023-03-31T14:41:30.050Z,41.08
2023-03-31T14:46:33.646Z,41.44
2023-03-31T14:51:35.974Z,41.78
2023-03-31T14:56:42.993Z,41.62
2023-03-31T15:01:48.333Z,41.70
2023-03-31T15:06:51.938Z,41.66
2023-03-31T15:12:01.367Z,41.40
2023-03-31T15:17:04.552Z,41.95
2023-03-31T15:22:16.651Z,41.71
2023-03-31T15:27:38.186Z,41.85
2023-03-31T15:32:41.391Z,41.80
2023-03-31T15:37:44.949Z,42.31
2023-03-31T15:43:01.599Z,42.02
2023-03-31T15:48:22.074Z,42.73
2023-03-31T15:53:29.378Z,43.55
2023-03-31T16:04:14.881Z,43.81
2023-03-31T16:09:29.448Z,44.92
2023-03-31T16:14:37.572Z,45.38
2023-03-31T16:19:52.571Z,45.03
2023-03-31T16:24:56.181Z,46.09
2023-03-31T16:30:23.675Z,47.21
2023-03-31T16:35:44.264Z,47.79
2023-03-31T16:40:59.204Z,49.48
2023-03-31T16:46:06.543Z,50.44
2023-03-31T16:51:31.891Z,51.57
2023-03-31T16:56:43.911Z,52.88
2023-03-31T17:01:46.574Z,55.54
2023-03-31T17:06:48.940Z,58.58
2023-03-31T17:11:51.389Z,60.75
2023-03-31T17:16:53.943Z,62.27
2023-03-31T17:21:56.387Z,62.49
2023-03-31T17:26:58.806Z,63.98
2023-03-31T17:32:01.585Z,64.20
2023-03-31T17:37:04.001Z,65.20
2023-03-31T17:42:06.513Z,66.41
2023-03-31T17:47:09.182Z,68.42
2023-03-31T17:52:14.111Z,69.62
2023-03-31T17:57:17.123Z,74.48
2023-03-31T18:02:20.045Z,76.15
2023-03-31T18:07:23.602Z,77.53
2023-03-31T18:12:26.567Z,78.30
2023-03-31T18:17:29.931Z,79.41
2023-03-31T18:22:38.376Z,80.23
2023-03-31T18:27:41.057Z,79.67
2023-03-31T18:32:44.193Z,80.94
2023-03-31T18:37:46.703Z,83.26
2023-03-31T18:42:49.453Z,84.97
2023-03-31T18:47:52.104Z,85.12
2023-03-31T18:52:54.975Z,85.58
2023-03-31T18:57:58.406Z,86.00
2023-03-31T19:03:00.964Z,86.19
2023-03-31T19:08:10.069Z,87.42
2023-03-31T19:13:18.543Z,87.51
2023-03-31T19:18:28.100Z,87.81
2023-03-31T19:23:32.281Z,88.62
2023-03-31T19:28:34.787Z,90.90
2023-03-31T19:33:37.143Z,91.74
2023-03-31T19:38:42.642Z,92.31
2023-03-31T19:43:47.996Z,91.44
2023-03-31T19:48:50.423Z,91.67
2023-03-31T19:53:56.614Z,89.96
2023-03-31T19:59:00.019Z,90.00
2023-03-31T20:04:03.061Z,89.18
2023-03-31T20:09:06.870Z,89.87
2023-03-31T20:14:10.986Z,91.24
2023-03-31T20:19:15.834Z,94.63
2023-03-31T20:24:19.636Z,96.42
2023-03-31T20:29:25.516Z,96.31
2023-03-31T20:34:27.996Z,96.43
2023-03-31T20:39:30.525Z,95.15
2023-03-31T20:44:33.093Z,97.28
2023-03-31T20:49:35.558Z,96.87
2023-03-31T20:54:49.332Z,98.20
2023-03-31T20:59:56.631Z,97.10
2023-03-31T21:04:59.595Z,97.67
2023-03-31T21:10:07.218Z,95.91
2023-03-31T21:15:10.492Z,95.95
2023-03-31T21:20:16.265Z,96.61
2023-03-31T21:25:26.226Z,97.02
2023-03-31T21:30:31.697Z,94.93
2023-03-31T21:35:38.126Z,94.82
2023-03-31T21:40:49.415Z,94.79
2023-03-31T21:45:53.678Z,95.66
2023-03-31T21:51:00.336Z,94.79
2023-03-31T21:56:03.101Z,95.37
2023-03-31T22:01:10.906Z,95.14
2023-03-31T22:06:13.760Z,95.81
2023-03-31T22:11:16.387Z,97.41
2023-03-31T22:16:21.390Z,96.69
2023-03-31T22:21:28.036Z,97.08
2023-03-31T22:26:37.086Z,98.74
2023-03-31T22:31:39.775Z,98.82
2023-03-31T22:36:42.351Z,100.00
2023-03-31T22:41:45.617Z,100.00
2023-03-31T22:46:48.089Z,100.00
2023-03-31T22:51:53.343Z,100.00
2023-03-31T22:56:55.843Z,100.00
2023-03-31T23:02:01.040Z,100.00
2023-03-31T23:07:03.515Z,100.00
2023-03-31T23:17:31.658Z,100.00
2023-03-31T23:22:39.938Z,100.00
2023-03-31T23:27:45.285Z,100.00
2023-03-31T23:32:47.904Z,100.00
2023-03-31T23:37:50.152Z,100.00
2023-03-31T23:42:52.779Z,100.00
2023-03-31T23:47:59.096Z,100.00
2023-03-31T23:53:02.943Z,100.00
2023-03-31T23:58:06.783Z,100.00
